Time;durP1;ratioP1;P1;durP2;ratioP2;P2;SDS_P1;SDS_P2;PMS_P1;PMS_P2;Temp;Humidity;BMP_temperature;BMP_pressure;BME280_temperature;BME280_humidity;BME280_pressure;Samples;Min_cycle;Max_cycle;Signal;HPM_P1;HPM_P2
2023/12/04 00:01:15;;;;;;;20.60;17.27;;;;;;;-0.99;86.74;101163.44;7395285;19;20860;-57
2023/12/04 00:03:42;;;;;;;21.57;17.50;;;;;;;-0.98;86.56;101155.53;7393932;19;20402;-58
2023/12/04 00:06:11;;;;;;;21.83;17.88;;;;;;;-0.94;86.65;101161.41;7395914;19;20716;-57
2023/12/04 00:08:38;;;;;;;20.10;17.40;;;;;;;-0.96;86.27;101164.09;7395207;19;20381;-59
2023/12/04 00:11:06;;;;;;;21.90;17.83;;;;;;;-0.95;86.08;101160.56;7397389;19;20356;-59
2023/12/04 00:13:33;;;;;;;20.92;16.58;;;;;;;-0.95;85.66;101165.78;7396445;19;20887;-59
2023/12/04 00:16:00;;;;;;;20.33;16.85;;;;;;;-0.95;85.29;101163.16;7396979;19;20374;-58
2023/12/04 00:18:27;;;;;;;20.70;16.63;;;;;;;-0.92;85.76;101155.16;7397272;19;20445;-59
2023/12/04 00:20:54;;;;;;;19.88;16.55;;;;;;;-0.92;85.24;101154.34;7397471;19;20697;-59
2023/12/04 00:23:21;;;;;;;19.35;16.13;;;;;;;-0.90;85.33;101142.91;7395731;19;20388;-57
2023/12/04 00:25:47;;;;;;;17.67;15.40;;;;;;;-0.96;84.93;101150.22;7394632;19;20388;-59
2023/12/04 00:28:14;;;;;;;18.08;14.73;;;;;;;-0.94;85.12;101141.41;7396250;19;20369;-60
2023/12/04 00:30:41;;;;;;;17.83;15.05;;;;;;;-0.94;85.24;101144.00;7396161;19;20360;-58
2023/12/04 00:33:08;;;;;;;17.50;14.75;;;;;;;-0.92;85.59;101134.34;7395752;19;20344;-58
2023/12/04 00:35:35;;;;;;;16.85;14.38;;;;;;;-0.86;86.29;101144.41;7394474;19;20397;-59
2023/12/04 00:38:02;;;;;;;16.80;14.10;;;;;;;-0.89;86.61;101134.16;7396089;19;20373;-57
2023/12/04 00:40:29;;;;;;;17.67;14.10;;;;;;;-0.87;86.78;101134.91;7396739;19;20435;-57
2023/12/04 00:42:56;;;;;;;15.93;13.48;;;;;;;-0.87;87.02;101131.44;7394849;19;20428;-56
2023/12/04 00:45:24;;;;;;;16.80;14.20;;;;;;;-0.83;87.04;101125.13;7392923;19;20369;-58
2023/12/04 00:47:51;;;;;;;17.83;14.75;;;;;;;-0.79;86.89;101115.38;7395031;19;20369;-59
2023/12/04 00:50:18;;;;;;;18.65;15.13;;;;;;;-0.72;86.88;101104.53;7392713;19;20356;-59
2023/12/04 00:52:44;;;;;;;19.83;15.55;;;;;;;-0.67;87.07;101096.41;7394510;19;20356;-59
2023/12/04 00:55:11;;;;;;;17.77;14.93;;;;;;;-0.62;87.04;101102.19;7394263;19;20361;-58
2023/12/04 00:57:38;;;;;;;17.70;15.05;;;;;;;-0.60;86.88;101100.31;7393018;19;20848;-59
2023/12/04 01:00:06;;;;;;;17.05;14.38;;;;;;;-0.56;86.78;101091.38;7394630;19;20348;-60
2023/12/04 01:02:33;;;;;;;16.95;14.57;;;;;;;-0.51;86.88;101086.75;7391813;19;20372;-59
2023/12/04 01:05:00;;;;;;;18.27;14.40;;;;;;;-0.49;86.24;101079.69;7393226;19;20428;-59
2023/12/04 01:07:27;;;;;;;16.30;13.27;;;;;;;-0.46;86.22;101070.81;7392651;19;20383;-60
2023/12/04 01:09:54;;;;;;;15.75;13.18;;;;;;;-0.44;85.56;101064.59;7392889;19;20369;-58
2023/12/04 01:12:21;;;;;;;16.35;14.05;;;;;;;-0.41;85.20;101069.59;7394293;19;20373;-58
2023/12/04 01:14:49;;;;;;;15.98;12.80;;;;;;;-0.38;84.85;101063.38;7395202;19;20356;-59
2023/12/04 01:17:15;;;;;;;15.02;12.65;;;;;;;-0.36;84.34;101065.88;7393301;19;20352;-59
2023/12/04 01:19:42;;;;;;;14.50;12.90;;;;;;;-0.34;84.11;101064.88;7392105;19;20364;-59
2023/12/04 01:22:09;;;;;;;15.77;13.63;;;;;;;-0.33;83.92;101063.09;7393269;19;20368;-58
2023/12/04 01:24:36;;;;;;;17.30;13.70;;;;;;;-0.33;83.49;101052.66;7392945;19;20365;-59
2023/12/04 01:27:02;;;;;;;17.67;14.20;;;;;;;-0.31;83.41;101058.63;7392890;19;20389;-58
2023/12/04 01:29:31;;;;;;;15.90;13.37;;;;;;;-0.31;83.16;101051.63;7394018;19;20370;-60
2023/12/04 01:31:58;;;;;;;15.63;12.65;;;;;;;-0.29;83.06;101054.16;7393622;19;20726;-58
2023/12/04 01:34:25;;;;;;;15.23;12.95;;;;;;;-0.28;83.25;101046.19;7395029;19;20375;-60
2023/12/04 01:36:52;;;;;;;14.60;12.53;;;;;;;-0.25;83.13;101047.81;7392021;19;20371;-59
2023/12/04 01:39:19;;;;;;;15.77;13.70;;;;;;;-0.23;83.03;101048.56;7391641;19;20329;-59
2023/12/04 01:41:46;;;;;;;16.75;13.73;;;;;;;-0.23;82.99;101038.94;7393769;19;20376;-60
2023/12/04 01:44:13;;;;;;;15.65;12.73;;;;;;;-0.22;82.83;101034.56;7392301;19;20349;-60
2023/12/04 01:46:40;;;;;;;15.07;12.93;;;;;;;-0.26;82.61;101033.09;7393188;19;20361;-58
2023/12/04 01:49:07;;;;;;;14.50;12.60;;;;;;;-0.20;82.95;101027.47;7392343;19;20349;-57
2023/12/04 01:51:35;;;;;;;15.98;13.60;;;;;;;-0.17;83.23;101027.31;7392358;19;20901;-60
2023/12/04 01:54:05;;;;;;;13.95;12.40;;;;;;;-0.17;83.24;101016.88;7390957;19;20360;-58
2023/12/04 01:56:34;;;;;;;16.25;13.55;;;;;;;-0.15;83.68;101017.63;7391916;19;20715;-59
2023/12/04 01:59:01;;;;;;;15.60;13.38;;;;;;;-0.16;83.78;101021.16;7391210;19;20364;-60
2023/12/04 02:01:28;;;;;;;15.63;13.55;;;;;;;-0.18;83.62;101020.41;7391975;19;20397;-59
2023/12/04 02:03:57;;;;;;;15.70;13.97;;;;;;;-0.22;84.58;101011.94;7389885;19;20465;-59
2023/12/04 02:06:25;;;;;;;16.08;13.57;;;;;;;-0.23;84.97;101005.06;7393212;19;20424;-60
2023/12/04 02:08:52;;;;;;;15.52;13.43;;;;;;;-0.29;85.51;101005.44;7386878;19;20710;-59
2023/12/04 02:11:18;;;;;;;16.02;14.10;;;;;;;-0.30;85.76;101001.19;7390093;19;20378;-59
2023/12/04 02:13:46;;;;;;;16.65;14.02;;;;;;;-0.30;86.64;101002.94;7386872;19;20378;-58
2023/12/04 02:16:15;;;;;;;18.58;14.60;;;;;;;-0.34;87.51;101004.06;7392502;19;20389;-59
2023/12/04 02:18:43;;;;;;;17.02;14.77;;;;;;;-0.33;87.66;101001.34;7390738;19;20379;-58
2023/12/04 02:21:10;;;;;;;17.17;14.20;;;;;;;-0.34;88.26;100993.63;7392455;19;20369;-58
2023/12/04 02:23:39;;;;;;;18.20;15.20;;;;;;;-0.33;88.48;100995.31;7391474;19;20379;-59
2023/12/04 02:26:16;;;;;;;17.63;14.80;;;;;;;-0.34;88.82;100986.66;7389728;19;20382;-58
2023/12/04 02:28:48;;;;;;;17.27;14.57;;;;;;;-0.32;88.81;100982.19;7391624;19;20360;-58
2023/12/04 02:31:17;;;;;;;20.40;16.07;;;;;;;-0.30;89.13;100974.25;7392119;19;20826;-60
2023/12/04 02:33:46;;;;;;;20.42;16.92;;;;;;;-0.29;89.21;100970.72;7392704;19;20706;-59
2023/12/04 02:36:14;;;;;;;21.27;17.13;;;;;;;-0.28;89.24;100968.00;7393138;19;20900;-59
2023/12/04 02:38:41;;;;;;;21.48;16.67;;;;;;;-0.32;89.43;100966.53;7391859;19;20365;-58
2023/12/04 02:41:08;;;;;;;19.83;16.60;;;;;;;-0.30;89.67;100969.03;7391814;19;20360;-57
2023/12/04 02:43:35;;;;;;;20.60;16.50;;;;;;;-0.30;89.78;100958.59;7390988;19;20368;-60
2023/12/04 02:46:02;;;;;;;20.75;16.98;;;;;;;-0.31;90.06;100957.78;7388430;19;20392;-59
2023/12/04 02:48:29;;;;;;;20.33;16.77;;;;;;;-0.31;90.16;100949.13;7392370;19;20415;-56
2023/12/04 02:50:56;;;;;;;20.65;17.40;;;;;;;-0.32;89.77;100950.91;7390751;19;20349;-58
2023/12/04 02:53:23;;;;;;;21.92;17.08;;;;;;;-0.31;89.91;100947.34;7391074;19;20360;-58
2023/12/04 02:55:50;;;;;;;19.73;16.25;;;;;;;-0.32;89.70;100937.00;7391066;19;20360;-58
2023/12/04 02:58:17;;;;;;;20.02;16.27;;;;;;;-0.33;89.61;100932.75;7391379;19;20364;-59
2023/12/04 03:00:44;;;;;;;19.60;15.65;;;;;;;-0.32;89.34;100931.81;7390585;19;20357;-59
2023/12/04 03:03:11;;;;;;;19.00;15.52;;;;;;;-0.31;89.64;100923.06;7388429;19;21224;-58
2023/12/04 03:05:38;;;;;;;17.67;15.37;;;;;;;-0.30;89.49;100916.91;7389137;19;20368;-59
2023/12/04 03:08:04;;;;;;;18.42;15.60;;;;;;;-0.29;89.22;100923.81;7390879;19;20368;-59
2023/12/04 03:10:31;;;;;;;18.50;15.65;;;;;;;-0.27;89.39;100912.34;7390883;19;20459;-59
2023/12/04 03:12:58;;;;;;;18.35;15.77;;;;;;;-0.26;89.25;100907.94;7389226;19;20349;-61
2023/12/04 03:15:28;;;;;;;18.63;15.60;;;;;;;-0.25;89.17;100917.47;7389333;19;20904;-60
2023/12/04 03:18:00;;;;;;;16.58;14.48;;;;;;;-0.24;89.19;100906.06;7390054;19;20333;-57
2023/12/04 03:20:32;;;;;;;18.30;15.33;;;;;;;-0.22;89.17;100905.03;7392284;19;20405;-59
2023/12/04 03:22:59;;;;;;;17.90;15.18;;;;;;;-0.21;88.96;100908.50;7396949;19;20408;-58
2023/12/04 03:25:26;;;;;;;18.95;15.57;;;;;;;-0.19;89.08;100906.63;7396684;19;20373;-58
2023/12/04 03:27:53;;;;;;;18.70;15.68;;;;;;;-0.17;88.94;100903.91;7396740;19;20372;-60
2023/12/04 03:30:20;;;;;;;17.17;15.18;;;;;;;-0.14;88.97;100901.94;7397167;19;20361;-58
2023/12/04 03:32:47;;;;;;;18.23;15.13;;;;;;;-0.13;88.65;100908.81;7398053;19;20364;-60
2023/12/04 03:35:14;;;;;;;17.27;14.68;;;;;;;-0.11;88.58;100900.91;7396487;19;20385;-58
2023/12/04 03:37:41;;;;;;;17.50;14.80;;;;;;;-0.09;88.41;100899.84;7395659;19;20933;-58
2023/12/04 03:40:08;;;;;;;17.58;14.77;;;;;;;-0.07;88.23;100897.97;7396718;19;20880;-59
2023/12/04 03:42:35;;;;;;;17.75;14.90;;;;;;;-0.05;88.31;100890.88;7395448;19;20365;-59
2023/12/04 03:45:01;;;;;;;17.53;14.77;;;;;;;-0.04;88.20;100884.75;7396882;19;20372;-58
2023/12/04 03:47:28;;;;;;;16.50;13.82;;;;;;;-0.01;87.95;100887.16;7398003;19;20376;-56
2023/12/04 03:49:55;;;;;;;15.97;14.23;;;;;;;-0.01;87.96;100879.31;7397387;19;20408;-59
2023/12/04 03:52:22;;;;;;;16.65;13.57;;;;;;;0.00;88.15;100872.34;7397124;19;20360;-58
2023/12/04 03:54:49;;;;;;;15.98;13.13;;;;;;;0.00;88.03;100864.53;7396044;19;20365;-59
2023/12/04 03:57:16;;;;;;;15.57;13.25;;;;;;;-0.02;87.63;100856.81;7396037;19;20362;-58
2023/12/04 03:59:43;;;;;;;14.45;11.88;;;;;;;-0.02;87.19;100853.38;7397452;19;20404;-58
2023/12/04 04:02:10;;;;;;;14.32;12.73;;;;;;;0.01;87.25;100857.53;7391904;19;20470;-60
2023/12/04 04:04:37;;;;;;;14.57;12.93;;;;;;;0.02;87.46;100853.97;7396517;19;20359;-59
2023/12/04 04:07:03;;;;;;;15.27;12.80;;;;;;;0.02;87.25;100846.97;7395664;19;20376;-59
2023/12/04 04:09:30;;;;;;;14.13;12.40;;;;;;;0.03;87.19;100842.63;7394491;19;20721;-59
2023/12/04 04:11:57;;;;;;;14.75;12.98;;;;;;;0.03;86.94;100840.84;7396460;19;20365;-59
2023/12/04 04:14:24;;;;;;;16.60;12.50;;;;;;;0.07;86.98;100841.47;7396054;19;20344;-58
2023/12/04 04:16:51;;;;;;;14.73;12.80;;;;;;;0.08;86.90;100841.34;7396801;19;20865;-58
2023/12/04 04:19:18;;;;;;;14.43;12.17;;;;;;;0.11;86.66;100828.13;7395813;19;20373;-58
2023/12/04 04:21:45;;;;;;;14.27;12.20;;;;;;;0.13;86.61;100830.63;7395626;19;20352;-60
2023/12/04 04:24:11;;;;;;;14.65;12.13;;;;;;;0.14;85.97;100827.06;7394849;19;20372;-61
2023/12/04 04:26:38;;;;;;;13.98;11.52;;;;;;;0.13;85.94;100823.63;7395656;19;20488;-61
2023/12/04 04:29:05;;;;;;;13.05;11.65;;;;;;;0.13;85.33;100801.94;7396784;19;20868;-60
2023/12/04 04:31:32;;;;;;;13.30;11.40;;;;;;;0.14;85.32;100803.59;7394566;19;20382;-59
2023/12/04 04:33:58;;;;;;;13.97;11.80;;;;;;;0.16;85.03;100804.31;7395357;19;20380;-59
2023/12/04 04:36:25;;;;;;;12.88;11.10;;;;;;;0.18;85.00;100802.44;7394146;19;20447;-60
2023/12/04 04:38:53;;;;;;;13.03;11.13;;;;;;;0.19;84.35;100804.09;7393591;19;20356;-61
2023/12/04 04:41:20;;;;;;;11.73;10.30;;;;;;;0.22;84.35;100803.91;7395935;19;20368;-60
2023/12/04 04:43:47;;;;;;;12.57;10.90;;;;;;;0.24;83.80;100803.81;7394862;19;20360;-60
2023/12/04 04:46:13;;;;;;;12.27;10.98;;;;;;;0.25;83.72;100803.69;7394983;19;20370;-60
2023/12/04 04:48:40;;;;;;;12.97;11.27;;;;;;;0.27;83.63;100800.97;7395344;19;20377;-60
2023/12/04 04:51:07;;;;;;;13.90;11.30;;;;;;;0.28;83.91;100800.88;7394478;19;20357;-61
2023/12/04 04:53:34;;;;;;;13.75;11.57;;;;;;;0.31;83.65;100803.25;7394249;19;20355;-60
2023/12/04 04:56:01;;;;;;;13.02;11.10;;;;;;;0.31;83.24;100805.88;7394752;19;20890;-60
2023/12/04 04:58:28;;;;;;;12.82;11.10;;;;;;;0.33;83.03;100800.56;7394545;19;20373;-59
2023/12/04 05:00:54;;;;;;;12.23;10.73;;;;;;;0.35;82.98;100788.25;7395389;19;20367;-60
2023/12/04 05:03:21;;;;;;;12.63;11.23;;;;;;;0.34;82.20;100787.41;7392512;19;20360;-60
2023/12/04 05:05:51;;;;;;;11.60;10.18;;;;;;;0.35;82.07;100789.06;7394578;19;20365;-60
2023/12/04 05:08:17;;;;;;;12.30;9.95;;;;;;;0.36;82.08;100776.84;7392277;19;20356;-60
2023/12/04 05:10:44;;;;;;;10.80;9.68;;;;;;;0.38;81.65;100778.44;7393979;19;20790;-60
2023/12/04 05:13:11;;;;;;;11.45;9.98;;;;;;;0.41;81.71;100779.97;7393533;19;20393;-59
2023/12/04 05:15:38;;;;;;;10.80;9.70;;;;;;;0.44;81.22;100782.38;7393540;19;20365;-60
2023/12/04 05:18:04;;;;;;;11.68;9.68;;;;;;;0.46;81.04;100779.66;7393832;19;20381;-60
2023/12/04 05:20:31;;;;;;;11.02;9.35;;;;;;;0.47;80.00;100776.94;7394811;19;20369;-60
2023/12/04 05:22:58;;;;;;;11.13;9.73;;;;;;;0.48;79.67;100769.94;7395503;19;20709;-57
2023/12/04 05:25:25;;;;;;;11.00;9.77;;;;;;;0.49;79.90;100766.38;7391971;19;20389;-58
2023/12/04 05:27:59;;;;;;;11.10;9.60;;;;;;;0.50;79.34;100765.44;7391455;19;20360;-60
2023/12/04 05:30:26;;;;;;;11.23;9.65;;;;;;;0.52;79.46;100763.56;7391068;19;20360;-59
2023/12/04 05:32:54;;;;;;;11.93;9.98;;;;;;;0.50;79.58;100758.44;7394095;19;20424;-60
2023/12/04 05:35:22;;;;;;;12.00;10.30;;;;;;;0.51;79.99;100754.91;7394335;19;20368;-60
2023/12/04 05:37:49;;;;;;;12.30;10.38;;;;;;;0.51;79.50;100761.88;7395174;19;20416;-60
2023/12/04 05:40:17;;;;;;;12.98;11.55;;;;;;;0.53;79.74;100757.38;7393799;19;20368;-59
2023/12/04 05:42:44;;;;;;;12.70;11.38;;;;;;;0.53;79.79;100750.41;7393037;19;20719;-59
2023/12/04 05:45:10;;;;;;;12.60;11.02;;;;;;;0.54;79.53;100752.06;7391433;19;20336;-60
2023/12/04 05:47:37;;;;;;;11.45;10.25;;;;;;;0.56;79.43;100759.81;7392495;19;20361;-58
2023/12/04 05:50:04;;;;;;;11.73;10.30;;;;;;;0.59;79.44;100754.34;7394656;19;20782;-59
2023/12/04 05:52:31;;;;;;;12.05;10.57;;;;;;;0.62;79.66;100756.75;7395262;19;20711;-59
2023/12/04 05:54:58;;;;;;;11.85;10.25;;;;;;;0.63;79.61;100758.41;7392786;19;20351;-57
2023/12/04 05:57:25;;;;;;;13.35;11.23;;;;;;;0.64;79.68;100757.47;7392370;19;20385;-57
2023/12/04 05:59:52;;;;;;;12.67;11.00;;;;;;;0.68;79.68;100761.53;7392565;19;20348;-58
2023/12/04 06:02:19;;;;;;;12.55;10.77;;;;;;;0.70;79.56;100762.28;7394929;19;20373;-59
2023/12/04 06:04:46;;;;;;;13.32;10.90;;;;;;;0.70;79.19;100749.22;7394016;19;20351;-58
2023/12/04 06:07:12;;;;;;;12.35;10.82;;;;;;;0.72;79.13;100736.88;7393374;19;20436;-59
2023/12/04 06:09:39;;;;;;;11.75;10.38;;;;;;;0.74;78.97;100748.03;7394972;19;20337;-60
2023/12/04 06:12:08;;;;;;;10.82;9.52;;;;;;;0.74;78.16;100748.03;7393952;19;20498;-59
2023/12/04 06:14:36;;;;;;;11.48;10.27;;;;;;;0.75;78.38;100735.81;7394105;19;20435;-60
2023/12/04 06:17:03;;;;;;;14.27;12.75;;;;;;;0.78;78.65;100738.19;7394815;19;20393;-58
2023/12/04 06:19:30;;;;;;;12.00;9.98;;;;;;;0.79;78.41;100732.88;7393932;19;20352;-60
2023/12/04 06:21:56;;;;;;;12.05;10.75;;;;;;;0.80;77.91;100731.91;7379687;19;20872;-59
2023/12/04 06:24:24;;;;;;;12.00;10.10;;;;;;;0.78;77.65;100731.19;7389023;19;20694;-61
2023/12/04 06:26:51;;;;;;;13.02;10.48;;;;;;;0.79;77.62;100724.22;7392519;19;20392;-59
2023/12/04 06:29:19;;;;;;;11.02;9.85;;;;;;;0.82;77.67;100726.59;7393540;19;20364;-60
2023/12/04 06:31:46;;;;;;;11.68;10.43;;;;;;;0.79;77.26;100722.44;7392133;19;20705;-61
2023/12/04 06:34:13;;;;;;;11.63;10.15;;;;;;;0.80;77.46;100729.31;7393082;19;20364;-58
2023/12/04 06:36:40;;;;;;;11.55;10.35;;;;;;;0.80;77.35;100731.91;7391718;19;20366;-57
2023/12/04 06:39:12;;;;;;;11.82;10.60;;;;;;;0.80;77.02;100729.31;7389759;19;20357;-58
2023/12/04 06:41:40;;;;;;;12.75;10.52;;;;;;;0.81;77.21;100733.59;7390441;19;20755;-59
2023/12/04 06:44:07;;;;;;;12.23;10.50;;;;;;;0.84;76.96;100729.94;7391522;19;20447;-59
2023/12/04 06:46:38;;;;;;;12.27;10.63;;;;;;;0.86;77.28;100729.81;7387625;19;20375;-59
2023/12/04 06:49:08;;;;;;;11.67;10.33;;;;;;;0.86;77.30;100720.22;7385149;19;20848;-60
2023/12/04 06:51:35;;;;;;;13.32;11.27;;;;;;;0.86;76.66;100719.38;7387186;19;20367;-58
2023/12/04 06:54:02;;;;;;;13.45;11.57;;;;;;;0.87;76.88;100726.25;7390193;19;20872;-59
2023/12/04 06:56:29;;;;;;;13.30;11.52;;;;;;;0.85;76.80;100722.91;7395014;19;20871;-59
2023/12/04 06:58:56;;;;;;;12.70;11.27;;;;;;;0.87;76.35;100723.66;7398404;19;20364;-60
2023/12/04 07:01:23;;;;;;;13.88;11.80;;;;;;;0.85;76.51;100712.47;7397775;19;21061;-60
2023/12/04 07:03:50;;;;;;;13.80;11.80;;;;;;;0.86;76.38;100719.38;7392066;19;20373;-59
2023/12/04 07:06:17;;;;;;;14.00;12.50;;;;;;;0.86;76.54;100716.78;7393760;19;20364;-60
2023/12/04 07:08:44;;;;;;;15.75;13.23;;;;;;;0.86;76.34;100716.78;7399895;19;20383;-59
2023/12/04 07:11:14;;;;;;;15.15;12.68;;;;;;;0.86;76.22;100716.78;7398766;19;20364;-59
2023/12/04 07:13:42;;;;;;;15.50;12.83;;;;;;;0.84;75.89;100711.66;7393467;19;20748;-60
2023/12/04 07:16:09;;;;;;;14.10;12.15;;;;;;;0.88;76.00;100717.50;7398094;19;20356;-60
2023/12/04 07:18:36;;;;;;;13.68;11.48;;;;;;;0.85;75.16;100725.53;7398984;19;20340;-58
2023/12/04 07:21:03;;;;;;;11.85;10.63;;;;;;;0.83;74.25;100715.22;7397170;19;20360;-60
2023/12/04 07:23:30;;;;;;;12.48;10.80;;;;;;;0.86;74.59;100719.38;7394687;19;20701;-59
2023/12/04 07:25:57;;;;;;;12.33;10.70;;;;;;;0.82;73.12;100716.97;7396861;19;20360;-61
2023/12/04 07:28:24;;;;;;;12.95;11.00;;;;;;;0.88;73.70;100725.31;7398609;19;20388;-62
2023/12/04 07:30:51;;;;;;;14.85;11.60;;;;;;;0.92;73.80;100719.75;7395418;19;20349;-60
2023/12/04 07:33:18;;;;;;;13.05;11.20;;;;;;;0.99;73.89;100722.75;7397900;19;20385;-60
2023/12/04 07:35:44;;;;;;;12.95;10.77;;;;;;;1.04;73.90;100725.03;7394121;19;20374;-61
2023/12/04 07:38:11;;;;;;;12.52;11.23;;;;;;;1.03;73.01;100726.81;7397931;19;20371;-61
2023/12/04 07:40:38;;;;;;;12.27;10.90;;;;;;;1.06;73.03;100723.13;7398159;19;20353;-60
2023/12/04 07:43:05;;;;;;;11.80;10.40;;;;;;;1.05;72.59;100726.72;7397534;19;20372;-61
2023/12/04 07:45:31;;;;;;;12.80;11.25;;;;;;;1.04;72.62;100727.63;7395566;19;20398;-61
2023/12/04 07:47:58;;;;;;;12.68;11.10;;;;;;;1.05;72.74;100724.91;7393174;19;20369;-61
2023/12/04 07:50:25;;;;;;;13.20;11.43;;;;;;;1.02;72.54;100725.16;7393285;19;20379;-60
2023/12/04 07:52:52;;;;;;;21.52;17.20;;;;;;;1.07;73.50;100719.59;7396405;19;20949;-61
2023/12/04 07:55:19;;;;;;;12.65;11.32;;;;;;;1.08;72.81;100718.63;7396285;19;20955;-60
2023/12/04 07:57:46;;;;;;;12.10;10.80;;;;;;;1.06;72.24;100716.13;7397614;19;20363;-60
2023/12/04 08:00:14;;;;;;;12.30;10.80;;;;;;;1.08;72.26;100714.22;7395665;19;20385;-60
2023/12/04 08:02:42;;;;;;;12.45;11.15;;;;;;;1.09;72.78;100710.69;7397128;19;20472;-61
2023/12/04 08:05:08;;;;;;;13.10;11.40;;;;;;;1.12;72.56;100715.69;7395468;19;20455;-62
2023/12/04 08:07:36;;;;;;;13.60;11.67;;;;;;;1.09;71.97;100704.63;7393863;19;20349;-60
2023/12/04 08:10:04;;;;;;;12.23;10.93;;;;;;;1.08;71.72;100709.00;7395630;19;20391;-59
2023/12/04 08:12:31;;;;;;;12.30;10.98;;;;;;;1.15;72.34;100717.25;7396284;19;20363;-61
2023/12/04 08:14:58;;;;;;;11.98;10.73;;;;;;;1.12;71.50;100710.44;7397525;19;20380;-61
2023/12/04 08:17:25;;;;;;;12.52;11.10;;;;;;;1.19;71.72;100705.59;7395573;19;20360;-60
2023/12/04 08:19:52;;;;;;;13.02;11.13;;;;;;;1.21;71.46;100707.19;7394713;19;20375;-60
2023/12/04 08:22:19;;;;;;;13.75;11.52;;;;;;;1.22;71.69;100703.59;7394465;19;20397;-60
2023/12/04 08:24:46;;;;;;;13.47;11.80;;;;;;;1.29;71.66;100711.81;7396448;19;20375;-60
2023/12/04 08:27:13;;;;;;;14.32;12.20;;;;;;;1.29;71.47;100708.38;7391745;19;20368;-61
2023/12/04 08:29:40;;;;;;;14.10;12.38;;;;;;;1.32;71.73;100705.50;7395438;19;20348;-60
2023/12/04 08:32:07;;;;;;;14.00;12.50;;;;;;;1.34;71.96;100706.22;7395425;19;20852;-60
2023/12/04 08:34:34;;;;;;;14.60;11.93;;;;;;;1.36;72.51;100707.81;7394230;19;20694;-61
2023/12/04 08:37:01;;;;;;;13.95;12.20;;;;;;;1.38;72.53;100702.44;7395579;19;20416;-61
2023/12/04 08:39:28;;;;;;;13.23;11.80;;;;;;;1.40;72.92;100708.38;7395544;19;21101;-61
2023/12/04 08:41:55;;;;;;;13.38;11.75;;;;;;;1.40;72.96;100701.41;7394818;19;20865;-60
2023/12/04 08:44:30;;;;;;;13.57;12.13;;;;;;;1.44;73.09;100702.00;7394947;19;20367;-60
2023/12/04 08:46:57;;;;;;;14.05;12.43;;;;;;;1.47;73.27;100703.53;7393245;19;20416;-61
2023/12/04 08:49:25;;;;;;;13.95;11.40;;;;;;;1.43;73.21;100698.53;7395706;19;20364;-59
2023/12/04 08:52:05;;;;;;;13.57;11.65;;;;;;;1.46;73.82;100697.47;7392770;19;20449;-59
2023/12/04 08:54:32;;;;;;;13.77;12.27;;;;;;;1.51;73.98;100691.91;7385251;19;20372;-61
2023/12/04 08:56:59;;;;;;;12.30;11.00;;;;;;;1.53;74.35;100687.38;7392065;19;20875;-61
2023/12/04 08:59:26;;;;;;;14.32;11.75;;;;;;;1.56;74.49;100682.75;7393716;19;20421;-60
2023/12/04 09:01:54;;;;;;;13.70;12.18;;;;;;;1.56;74.47;100680.16;7394487;19;20416;-60
2023/12/04 09:04:21;;;;;;;13.10;11.70;;;;;;;1.62;74.90;100682.28;7395079;19;20360;-58
2023/12/04 09:06:48;;;;;;;13.95;12.30;;;;;;;1.67;74.96;100674.09;7395827;19;20341;-60
2023/12/04 09:09:18;;;;;;;14.67;12.27;;;;;;;1.72;74.79;100671.13;7396222;19;20375;-61
2023/12/04 09:11:46;;;;;;;13.68;12.13;;;;;;;1.75;74.74;100663.88;7395495;19;20686;-59
2023/12/04 09:14:12;;;;;;;14.48;12.98;;;;;;;1.78;74.09;100674.09;7395720;19;20363;-59
2023/12/04 09:16:39;;;;;;;14.70;13.10;;;;;;;1.80;73.87;100668.75;7394988;19;20368;-60
2023/12/04 09:19:06;;;;;;;13.47;12.07;;;;;;;1.85;73.66;100664.00;7395120;19;20352;-60
2023/12/04 09:21:33;;;;;;;14.25;12.32;;;;;;;1.93;73.81;100659.00;7395227;19;20373;-61
2023/12/04 09:24:00;;;;;;;13.05;11.75;;;;;;;2.00;73.25;100660.19;7392939;19;20912;-59
2023/12/04 09:26:27;;;;;;;20.10;17.13;;;;;;;2.10;72.93;100659.47;7391014;19;20396;-60
2023/12/04 09:28:54;;;;;;;13.10;11.52;;;;;;;2.20;72.15;100660.41;7383758;19;20370;-60
2023/12/04 09:31:21;;;;;;;13.27;11.82;;;;;;;2.28;71.71;100658.00;7393087;19;20912;-61
2023/12/04 09:33:47;;;;;;;11.75;10.55;;;;;;;2.35;71.15;100660.97;7394827;19;20352;-60
2023/12/04 09:36:14;;;;;;;11.52;10.32;;;;;;;2.39;70.22;100660.59;7394768;19;20364;-60
2023/12/04 09:38:42;;;;;;;11.85;10.63;;;;;;;2.43;69.82;100654.16;7393794;19;20436;-60
2023/12/04 09:41:12;;;;;;;12.20;10.70;;;;;;;2.53;70.52;100650.78;7386261;19;20360;-60
2023/12/04 09:43:41;;;;;;;11.52;10.13;;;;;;;2.62;69.86;100655.31;7392404;19;20373;-61
2023/12/04 09:46:09;;;;;;;12.27;10.88;;;;;;;2.71;69.91;100653.72;7392030;19;20666;-60
2023/12/04 09:48:42;;;;;;;11.65;10.43;;;;;;;2.76;69.94;100649.78;7388978;19;20341;-60
2023/12/04 09:51:10;;;;;;;11.80;10.55;;;;;;;2.84;70.14;100643.91;7391953;19;20936;-60
2023/12/04 09:53:39;;;;;;;11.23;10.03;;;;;;;2.92;69.87;100645.91;7392092;19;20360;-61
2023/12/04 09:56:09;;;;;;;11.00;9.90;;;;;;;3.02;69.75;100646.81;7393128;19;20368;-60
2023/12/04 09:58:40;;;;;;;11.25;10.05;;;;;;;3.14;69.60;100645.75;7390788;19;20871;-61
2023/12/04 10:01:07;;;;;;;12.18;10.57;;;;;;;3.26;69.23;100638.66;7391385;19;20376;-60
2023/12/04 10:03:35;;;;;;;11.27;9.68;;;;;;;3.34;67.07;100632.78;7390691;19;20363;-61
2023/12/04 10:06:04;;;;;;;11.20;9.65;;;;;;;3.35;65.47;100632.63;7392656;19;20697;-60
2023/12/04 10:08:31;;;;;;;10.70;9.60;;;;;;;3.39;64.88;100622.72;7391966;19;20373;-61
2023/12/04 10:10:58;;;;;;;11.20;9.40;;;;;;;3.36;63.85;100613.34;7391969;19;20376;-60
2023/12/04 10:13:26;;;;;;;10.03;8.80;;;;;;;3.40;63.85;100608.66;7389788;19;20360;-61
2023/12/04 10:16:13;;;;;;;12.48;10.23;;;;;;;3.42;63.56;100618.06;7390467;19;20364;-61
2023/12/04 10:18:40;;;;;;;10.05;8.93;;;;;;;3.46;63.51;100613.38;7391502;19;20372;-60
2023/12/04 10:21:07;;;;;;;11.43;9.93;;;;;;;3.54;64.14;100604.84;7392161;19;20360;-60
2023/12/04 10:23:44;;;;;;;11.77;9.53;;;;;;;3.59;63.79;100603.50;7391127;19;20872;-60
2023/12/04 10:26:15;;;;;;;10.60;9.20;;;;;;;3.63;63.51;100604.91;7391935;19;20340;-59
2023/12/04 10:29:02;;;;;;;9.35;8.15;;;;;;;3.63;62.37;100599.66;7388793;19;20376;-60
2023/12/04 10:31:33;;;;;;;8.80;7.90;;;;;;;3.65;62.83;100591.66;7398726;19;20348;-59
2023/12/04 10:34:02;;;;;;;9.25;7.90;;;;;;;3.70;62.75;100591.25;7398900;19;20747;-59
2023/12/04 10:36:30;;;;;;;9.40;8.25;;;;;;;3.72;62.39;100595.41;7397382;19;20839;-59
2023/12/04 10:39:00;;;;;;;9.20;8.20;;;;;;;3.76;62.72;100580.22;7400434;19;20391;-59
2023/12/04 10:41:27;;;;;;;9.35;8.15;;;;;;;3.80;62.66;100573.75;7400477;19;20420;-59
2023/12/04 10:43:55;;;;;;;9.35;8.35;;;;;;;3.85;62.21;100564.50;7398892;19;20360;-60
2023/12/04 10:46:35;;;;;;;8.68;7.78;;;;;;;3.90;61.84;100571.16;7400539;19;20392;-61
2023/12/04 10:49:04;;;;;;;8.15;7.35;;;;;;;3.92;61.69;100564.78;7397987;19;20360;-59
2023/12/04 10:51:34;;;;;;;9.70;7.80;;;;;;;3.93;61.22;100566.47;7399723;19;20357;-59
2023/12/04 10:54:04;;;;;;;9.02;8.13;;;;;;;3.93;61.37;100561.22;7400097;19;20373;-59
2023/12/04 10:56:44;;;;;;;9.38;8.15;;;;;;;3.86;60.49;100555.66;7399326;19;20368;-58
2023/12/04 10:59:15;;;;;;;8.63;7.63;;;;;;;3.83;61.02;100552.50;7400243;19;20376;-59
2023/12/04 11:01:45;;;;;;;9.38;8.02;;;;;;;3.78;61.07;100549.44;7399433;19;20446;-59
2023/12/04 11:04:18;;;;;;;8.90;8.00;;;;;;;3.77;61.43;100547.78;7399549;19;20361;-60
2023/12/04 11:06:49;;;;;;;10.18;8.63;;;;;;;3.76;61.44;100546.09;7399078;19;20367;-60
2023/12/04 11:09:18;;;;;;;9.27;8.35;;;;;;;3.71;61.14;100543.06;7397649;19;20371;-60
2023/12/04 11:11:53;;;;;;;9.20;8.13;;;;;;;3.70;61.22;100536.16;7396724;19;20803;-60
2023/12/04 11:14:24;;;;;;;8.90;7.97;;;;;;;3.66;60.76;100530.34;7398807;19;20393;-61
2023/12/04 11:17:01;;;;;;;10.07;8.65;;;;;;;3.60;60.73;100536.97;7397657;19;20388;-60
2023/12/04 11:19:55;;;;;;;9.48;8.30;;;;;;;3.55;60.48;100533.06;7397785;19;21289;-61